Weather at Lone Mountain International Airport

Public forecast

Using degrees Fahrenheit for public forecast. Weather courtesy of forecast.io.

Closest aviation weather report (METAR) to Lone Mountain International Airport

Closest report is Sierra Vista Municipal Airport / Libby Army Air Field, 14.0 nm (25.9 km) N. Retrieved 2021/06/25 02:58 UTC (17 minutes ago):

KFHU 250258Z AUTO 25010KT 8SM CLR 29/07 A3006 RMK AO2 SLP101 T02850066 53006

Closest aviation forecast (TAF) to Lone Mountain International Airport

Closest forecast is Sierra Vista Municipal Airport / Libby Army Air Field, 14.0 nm (25.9 km) N. Retrieved 2021/06/24 22:18 UTC (5 hours ago):

TAF TAF KFHU 242200Z 2422/2604 28009KT 9999 SCT070 BKN090 QNH3006INS TEMPO 2422/2502 28010G15KT BECMG 2502/2503 29009KT 9999 SCT070 QNH3004INS BECMG 2520/2521 27012G17KT 9999 SKC QNH2998INS TX32/2423Z TN22/2513Z